createdAt,value
2022-12-25T00:03:20.820Z,8.40
2022-12-25T00:08:22.981Z,8.61
2022-12-25T00:13:25.488Z,8.70
2022-12-25T00:18:28.290Z,8.59
2022-12-25T00:23:30.751Z,8.61
2022-12-25T00:28:32.848Z,8.29
2022-12-25T00:33:36.601Z,8.16
2022-12-25T00:38:40.890Z,8.22
2022-12-25T00:43:43.338Z,8.12
2022-12-25T00:48:47.951Z,8.28
2022-12-25T00:53:50.315Z,8.23
2022-12-25T00:58:52.438Z,8.11
2022-12-25T01:03:55.741Z,8.18
2022-12-25T01:09:17.123Z,8.22
2022-12-25T01:14:19.256Z,8.39
2022-12-25T01:19:21.480Z,8.40
2022-12-25T01:24:23.828Z,8.25
2022-12-25T01:29:26.107Z,8.23
2022-12-25T01:34:28.291Z,8.30
2022-12-25T01:39:30.714Z,8.29
2022-12-25T01:44:35.889Z,8.19
2022-12-25T01:49:40.723Z,8.14
2022-12-25T01:54:50.949Z,8.17
2022-12-25T01:59:54.205Z,8.19
2022-12-25T02:05:12.344Z,8.13
2022-12-25T02:10:14.966Z,8.14
2022-12-25T02:15:21.160Z,8.14
2022-12-25T02:21:16.920Z,8.17
2022-12-25T02:26:27.823Z,8.15
2022-12-25T02:31:37.123Z,8.00
2022-12-25T02:36:50.895Z,8.05
2022-12-25T02:41:58.576Z,7.94
2022-12-25T02:47:29.368Z,7.78
2022-12-25T02:58:42.770Z,7.75
2022-12-25T03:04:09.067Z,7.92
2022-12-25T03:09:37.538Z,7.80
2022-12-25T03:14:58.552Z,7.83
2022-12-25T03:20:19.461Z,7.73
2022-12-25T03:25:40.173Z,7.60
2022-12-25T03:31:07.670Z,7.57
2022-12-25T03:36:22.757Z,7.60
2022-12-25T03:42:04.548Z,7.63
2022-12-25T03:47:45.672Z,7.41
2022-12-25T03:53:08.944Z,7.40
2022-12-25T03:58:37.932Z,7.29
2022-12-25T04:03:58.806Z,7.23
2022-12-25T04:09:20.142Z,7.02
2022-12-25T04:14:40.921Z,7.16
2022-12-25T04:20:01.728Z,6.87
2022-12-25T04:25:22.563Z,6.80
2022-12-25T04:30:43.118Z,6.82
2022-12-25T04:36:07.203Z,6.81
2022-12-25T04:41:11.992Z,6.76
2022-12-25T04:46:14.083Z,6.66
2022-12-25T04:51:22.252Z,6.78
2022-12-25T04:56:24.524Z,6.94
2022-12-25T05:01:26.720Z,6.84
2022-12-25T05:06:28.887Z,6.96
2022-12-25T05:11:31.029Z,6.87
2022-12-25T05:16:38.515Z,7.05
2022-12-25T05:21:53.698Z,7.00
2022-12-25T05:26:55.951Z,6.80
2022-12-25T05:31:57.979Z,6.92
2022-12-25T05:37:00.479Z,6.84
2022-12-25T05:42:02.680Z,6.62
2022-12-25T05:47:04.968Z,6.81
2022-12-25T05:52:07.381Z,6.74
2022-12-25T05:57:09.486Z,6.74
2022-12-25T06:02:15.096Z,6.79
2022-12-25T06:07:17.425Z,6.71
2022-12-25T06:12:19.921Z,6.76
2022-12-25T06:17:25.063Z,6.93
2022-12-25T06:22:31.508Z,7.03
2022-12-25T06:27:33.887Z,7.02
2022-12-25T06:32:36.204Z,7.13
2022-12-25T06:37:38.426Z,7.06
2022-12-25T06:42:40.660Z,7.08
2022-12-25T06:47:43.664Z,7.41
2022-12-25T06:52:46.386Z,7.25
2022-12-25T06:57:48.555Z,7.37
2022-12-25T07:02:50.738Z,7.24
2022-12-25T07:07:52.949Z,7.25
2022-12-25T07:12:58.306Z,7.15
2022-12-25T07:18:00.755Z,7.23
2022-12-25T07:23:02.777Z,7.53
2022-12-25T07:28:05.097Z,7.45
2022-12-25T07:33:07.437Z,7.54
2022-12-25T07:38:09.752Z,7.90
2022-12-25T07:43:11.983Z,7.94
2022-12-25T07:48:16.774Z,8.46
2022-12-25T07:53:19.415Z,8.82
2022-12-25T07:58:23.416Z,9.52
2022-12-25T08:03:26.198Z,9.88
2022-12-25T08:08:29.028Z,9.64
2022-12-25T08:13:32.241Z,9.26
2022-12-25T08:18:35.273Z,9.00
2022-12-25T08:29:19.077Z,8.81
2022-12-25T08:34:21.769Z,9.11
2022-12-25T08:39:24.570Z,8.86
2022-12-25T08:44:26.914Z,9.22
2022-12-25T08:49:29.764Z,9.30
2022-12-25T08:54:33.944Z,9.38
2022-12-25T08:59:36.030Z,9.05
2022-12-25T09:04:38.220Z,8.95
2022-12-25T09:09:40.376Z,9.00
2022-12-25T09:14:42.934Z,9.29
2022-12-25T09:19:45.125Z,9.58
2022-12-25T09:24:47.247Z,9.75
2022-12-25T09:29:49.632Z,9.78
2022-12-25T09:34:52.079Z,9.96
2022-12-25T09:39:54.597Z,10.90
2022-12-25T09:45:01.138Z,12.15
2022-12-25T09:50:06.465Z,14.97
2022-12-25T09:55:21.752Z,14.69
2022-12-25T10:00:29.127Z,14.55
2022-12-25T10:05:58.065Z,15.22
2022-12-25T10:11:05.114Z,13.68
2022-12-25T10:16:45.022Z,16.17
2022-12-25T10:21:50.279Z,15.00
2022-12-25T10:26:55.764Z,16.20
2022-12-25T10:31:58.438Z,15.35
2022-12-25T10:37:02.624Z,14.24
2022-12-25T10:42:34.112Z,13.35
2022-12-25T10:47:42.853Z,12.23
2022-12-25T10:53:05.400Z,12.74
2022-12-25T10:58:07.611Z,13.25
2022-12-25T11:03:27.239Z,13.09
2022-12-25T11:08:33.306Z,12.67
2022-12-25T11:13:40.770Z,11.89
2022-12-25T11:18:49.117Z,11.60
2022-12-25T11:23:58.896Z,11.64
2022-12-25T11:29:01.390Z,11.60
2022-12-25T11:34:26.627Z,11.92
2022-12-25T11:39:32.191Z,11.62
2022-12-25T11:45:17.427Z,11.84
2022-12-25T11:50:31.123Z,11.82
2022-12-25T11:55:55.063Z,11.81
2022-12-25T12:00:59.375Z,11.57
2022-12-25T12:06:32.121Z,11.33
2022-12-25T12:11:44.930Z,11.39
2022-12-25T12:16:47.584Z,11.13
2022-12-25T12:21:50.507Z,11.22
2022-12-25T12:27:18.438Z,10.85
2022-12-25T12:32:35.206Z,10.69
2022-12-25T12:37:40.050Z,10.76
2022-12-25T12:42:50.677Z,10.59
2022-12-25T12:47:54.243Z,10.70
2022-12-25T12:58:33.932Z,10.97
2022-12-25T13:04:08.875Z,10.98
2022-12-25T13:09:29.935Z,11.03
2022-12-25T13:14:32.463Z,10.65
2022-12-25T13:19:37.296Z,10.57
2022-12-25T13:24:39.964Z,10.49
2022-12-25T13:29:42.035Z,10.62
2022-12-25T13:35:07.273Z,10.57
2022-12-25T13:40:22.345Z,10.24
2022-12-25T13:45:28.136Z,10.29
2022-12-25T13:50:34.818Z,10.10
2022-12-25T13:55:37.240Z,10.08
2022-12-25T14:00:58.740Z,10.06
2022-12-25T14:06:19.468Z,9.89
2022-12-25T14:11:28.037Z,9.52
2022-12-25T14:16:30.629Z,9.51
2022-12-25T14:21:41.150Z,9.41
2022-12-25T14:26:43.905Z,9.34
2022-12-25T14:31:47.619Z,9.28
2022-12-25T14:36:52.637Z,9.11
2022-12-25T14:41:55.282Z,9.21
2022-12-25T14:47:25.037Z,9.07
2022-12-25T14:52:42.512Z,8.98
2022-12-25T14:57:50.266Z,8.97
2022-12-25T15:02:56.434Z,8.51
2022-12-25T15:08:01.019Z,8.25
2022-12-25T15:13:03.346Z,8.05
2022-12-25T15:18:05.805Z,7.59
2022-12-25T15:23:20.305Z,7.34
2022-12-25T15:28:23.041Z,7.23
2022-12-25T15:33:25.328Z,6.61
2022-12-25T15:38:27.616Z,6.42
2022-12-25T15:43:45.163Z,6.26
2022-12-25T15:48:47.637Z,5.76
2022-12-25T15:53:49.890Z,5.60
2022-12-25T15:58:52.429Z,5.60
2022-12-25T16:03:54.846Z,5.54
2022-12-25T16:08:57.212Z,4.75
2022-12-25T16:13:59.410Z,5.05
2022-12-25T16:19:01.501Z,5.06
2022-12-25T16:24:03.854Z,5.06
2022-12-25T16:29:07.540Z,4.83
2022-12-25T16:34:10.385Z,4.67
2022-12-25T16:39:12.927Z,4.32
2022-12-25T16:44:15.146Z,4.07
2022-12-25T16:49:17.447Z,4.22
2022-12-25T16:54:19.691Z,4.02
2022-12-25T16:59:23.647Z,3.96
2022-12-25T17:04:28.841Z,4.11
2022-12-25T17:09:31.549Z,3.88
2022-12-25T17:14:34.813Z,4.16
2022-12-25T17:19:38.404Z,4.12
2022-12-25T17:24:41.701Z,4.03
2022-12-25T17:29:44.258Z,4.26
2022-12-25T17:34:46.473Z,3.83
2022-12-25T17:39:48.926Z,3.80
2022-12-25T17:44:51.191Z,3.89
2022-12-25T17:49:53.367Z,3.61
2022-12-25T17:54:55.382Z,3.60
2022-12-25T17:59:57.497Z,3.31
2022-12-25T18:04:59.936Z,2.48
2022-12-25T18:10:02.080Z,2.98
2022-12-25T18:15:04.747Z,2.92
2022-12-25T18:20:07.460Z,2.87
2022-12-25T18:25:09.867Z,2.63
2022-12-25T18:30:12.988Z,2.48
2022-12-25T18:35:15.217Z,2.58
2022-12-25T18:40:17.594Z,2.61
2022-12-25T18:45:20.942Z,2.73
2022-12-25T18:50:23.024Z,2.59
2022-12-25T18:55:26.006Z,2.65
2022-12-25T19:00:28.614Z,2.57
2022-12-25T19:05:30.779Z,2.58
2022-12-25T19:10:33.875Z,2.33
2022-12-25T19:15:41.255Z,2.07
2022-12-25T19:20:43.467Z,1.83
2022-12-25T19:25:46.097Z,1.79
2022-12-25T19:30:48.213Z,1.66
2022-12-25T19:35:51.597Z,1.71
2022-12-25T19:41:02.701Z,1.80
2022-12-25T19:46:05.600Z,1.42
2022-12-25T19:51:26.811Z,1.52
2022-12-25T19:56:29.700Z,1.34
2022-12-25T20:01:33.392Z,1.42
2022-12-25T20:06:39.461Z,1.43
2022-12-25T20:11:43.705Z,1.55
2022-12-25T20:16:47.243Z,1.25
2022-12-25T20:21:49.771Z,1.46
2022-12-25T20:26:58.636Z,1.11
2022-12-25T20:32:01.346Z,1.07
2022-12-25T20:37:04.241Z,1.08
2022-12-25T20:42:06.688Z,0.88
2022-12-25T20:47:09.436Z,1.15
2022-12-25T20:52:11.491Z,0.99
2022-12-25T20:57:14.158Z,0.91
2022-12-25T21:02:33.422Z,0.90
2022-12-25T21:07:38.621Z,0.77
2022-12-25T21:12:41.019Z,0.71
2022-12-25T21:17:43.630Z,0.88
2022-12-25T21:22:46.053Z,0.92
2022-12-25T21:27:48.069Z,1.02
2022-12-25T21:33:08.706Z,0.95
2022-12-25T21:38:10.899Z,1.07
2022-12-25T21:43:17.123Z,0.95
2022-12-25T21:48:19.386Z,1.19
2022-12-25T21:53:22.289Z,1.14
2022-12-25T21:58:24.845Z,1.15
2022-12-25T22:03:26.969Z,1.18
2022-12-25T22:08:33.109Z,1.15
2022-12-25T22:13:53.755Z,1.10
2022-12-25T22:19:17.094Z,0.91
2022-12-25T22:24:19.385Z,0.73
2022-12-25T22:29:22.018Z,0.69
2022-12-25T22:34:24.268Z,0.74
2022-12-25T22:39:27.555Z,0.82
2022-12-25T22:44:32.282Z,0.70
2022-12-25T22:49:34.542Z,0.74
2022-12-25T22:54:37.754Z,0.81
2022-12-25T22:59:39.914Z,0.78
2022-12-25T23:04:42.109Z,0.88
2022-12-25T23:09:44.756Z,0.83
2022-12-25T23:14:47.318Z,0.68
2022-12-25T23:20:07.821Z,0.73
2022-12-25T23:25:33.295Z,0.61
2022-12-25T23:30:35.720Z,0.57
2022-12-25T23:35:37.832Z,0.34
2022-12-25T23:40:39.904Z,0.06
2022-12-25T23:45:42.047Z,0.17
2022-12-25T23:50:44.486Z,0.26
2022-12-25T23:55:50.125Z,0.07
